createdAt,value
2022-10-17T00:02:07.234Z,4.35
2022-10-17T00:07:01.169Z,4.03
2022-10-17T00:09:27.616Z,4.57
2022-10-17T00:11:54.255Z,4.63
2022-10-17T00:14:20.732Z,4.25
2022-10-17T00:16:47.163Z,4.32
2022-10-17T00:19:13.635Z,4.50
2022-10-17T00:21:40.173Z,4.80
2022-10-17T00:24:06.837Z,4.60
2022-10-17T00:26:33.344Z,4.80
2022-10-17T00:28:59.875Z,4.43
2022-10-17T00:31:26.370Z,4.70
2022-10-17T00:33:53.280Z,4.63
2022-10-17T00:36:24.787Z,4.47
2022-10-17T00:38:56.715Z,5.03
2022-10-17T00:41:26.051Z,4.97
2022-10-17T00:43:57.156Z,4.63
2022-10-17T00:46:26.116Z,5.10
2022-10-17T00:48:54.040Z,4.60
2022-10-17T00:51:26.354Z,4.60
2022-10-17T00:53:52.915Z,4.72
2022-10-17T00:56:20.335Z,5.20
2022-10-17T00:58:47.714Z,5.10
2022-10-17T01:01:14.287Z,4.53
2022-10-17T01:03:40.827Z,4.68
2022-10-17T01:06:07.295Z,4.82
2022-10-17T01:08:33.805Z,4.73
2022-10-17T01:11:18.648Z,4.97
2022-10-17T01:13:48.430Z,5.13
2022-10-17T01:16:22.159Z,4.60
2022-10-17T01:19:01.413Z,4.82
2022-10-17T01:21:31.643Z,4.60
2022-10-17T01:24:16.552Z,4.10
2022-10-17T01:26:55.442Z,4.55
2022-10-17T01:29:33.989Z,3.90
2022-10-17T01:32:18.666Z,4.40
2022-10-17T01:34:54.607Z,4.40
2022-10-17T01:37:39.759Z,4.57
2022-10-17T01:40:10.597Z,4.60
2022-10-17T01:42:42.797Z,4.28
2022-10-17T01:45:16.899Z,4.13
2022-10-17T01:47:43.856Z,4.80
2022-10-17T01:50:18.534Z,4.05
2022-10-17T01:52:48.839Z,4.50
2022-10-17T01:55:20.450Z,4.32
2022-10-17T01:58:11.545Z,4.65
2022-10-17T02:00:38.491Z,4.37
2022-10-17T02:03:06.806Z,4.78
2022-10-17T02:05:36.753Z,6.30
2022-10-17T02:08:04.123Z,4.55
2022-10-17T02:10:43.847Z,4.35
2022-10-17T02:13:40.127Z,4.20
2022-10-17T02:16:44.362Z,4.25
2022-10-17T02:19:47.212Z,4.18
2022-10-17T02:22:41.504Z,3.67
2022-10-17T02:25:13.980Z,3.75
2022-10-17T02:27:47.755Z,3.83
2022-10-17T02:30:31.053Z,3.35
2022-10-17T02:33:05.876Z,3.80
2022-10-17T02:35:36.138Z,3.65
2022-10-17T02:38:04.014Z,3.60
2022-10-17T02:40:31.739Z,3.80
2022-10-17T02:42:59.337Z,3.55
2022-10-17T02:45:27.659Z,4.90
2022-10-17T02:48:15.615Z,3.50
2022-10-17T02:50:49.464Z,4.00
2022-10-17T02:53:23.920Z,3.70
2022-10-17T02:55:58.484Z,3.80
2022-10-17T02:58:29.041Z,4.30
2022-10-17T03:00:55.614Z,3.40
2022-10-17T03:03:27.687Z,4.03
2022-10-17T03:05:54.518Z,3.53
2022-10-17T03:08:21.404Z,3.90
2022-10-17T03:10:47.998Z,3.95
2022-10-17T03:13:15.277Z,4.22
2022-10-17T03:15:41.749Z,4.20
2022-10-17T03:18:08.446Z,4.50
2022-10-17T03:20:34.958Z,4.35
2022-10-17T03:23:01.524Z,4.22
2022-10-17T03:25:28.067Z,4.03
2022-10-17T03:27:54.846Z,4.68
2022-10-17T03:30:21.289Z,3.70
2022-10-17T03:32:47.722Z,4.30
2022-10-17T03:35:15.025Z,3.78
2022-10-17T03:37:41.724Z,3.85
2022-10-17T03:40:08.454Z,4.00
2022-10-17T03:42:34.928Z,3.67
2022-10-17T03:45:01.362Z,3.83
2022-10-17T03:47:28.988Z,3.75
2022-10-17T03:49:55.740Z,3.92
2022-10-17T03:52:22.292Z,3.22
2022-10-17T03:54:49.994Z,3.90
2022-10-17T03:57:17.109Z,3.22
2022-10-17T03:59:43.533Z,3.28
2022-10-17T04:02:09.972Z,4.32
2022-10-17T04:04:36.449Z,3.80
2022-10-17T04:07:03.060Z,3.90
2022-10-17T04:09:29.491Z,3.80
2022-10-17T04:11:55.966Z,3.90
2022-10-17T04:14:22.414Z,3.40
2022-10-17T04:16:48.857Z,3.60
2022-10-17T04:19:15.473Z,3.73
2022-10-17T04:21:41.890Z,3.90
2022-10-17T04:24:10.451Z,4.03
2022-10-17T04:26:36.922Z,3.97
2022-10-17T04:29:03.367Z,6.75
2022-10-17T04:31:29.842Z,4.03
2022-10-17T04:33:56.311Z,3.80
2022-10-17T04:36:23.409Z,3.67
2022-10-17T04:38:49.843Z,3.60
2022-10-17T04:41:17.726Z,3.47
2022-10-17T04:43:47.015Z,4.20
2022-10-17T04:46:16.990Z,3.65
2022-10-17T04:48:43.483Z,4.25
2022-10-17T04:51:18.774Z,3.65
2022-10-17T04:53:47.206Z,4.03
2022-10-17T04:56:17.042Z,3.90
2022-10-17T04:58:44.012Z,4.28
2022-10-17T05:01:13.068Z,3.80
2022-10-17T05:03:40.533Z,3.72
2022-10-17T05:06:12.283Z,3.90
2022-10-17T05:08:39.066Z,3.80
2022-10-17T05:11:06.319Z,3.42
2022-10-17T05:13:33.276Z,3.80
2022-10-17T05:16:00.966Z,4.10
2022-10-17T05:18:28.894Z,3.60
2022-10-17T05:20:55.492Z,3.40
2022-10-17T05:23:21.963Z,3.50
2022-10-17T05:25:48.446Z,3.28
2022-10-17T05:28:14.883Z,3.13
2022-10-17T05:30:41.393Z,3.50
2022-10-17T05:33:09.096Z,3.63
2022-10-17T05:35:36.048Z,3.90
2022-10-17T05:38:02.552Z,3.55
2022-10-17T05:40:28.987Z,3.50
2022-10-17T05:42:55.481Z,3.92
2022-10-17T05:45:22.164Z,4.23
2022-10-17T05:47:48.655Z,4.57
2022-10-17T05:50:15.170Z,4.38
2022-10-17T05:52:43.912Z,5.15
2022-10-17T05:55:13.049Z,5.40
2022-10-17T05:57:39.494Z,6.17
2022-10-17T06:00:06.701Z,4.40
2022-10-17T06:02:33.612Z,4.80
2022-10-17T06:05:00.249Z,4.47
2022-10-17T06:07:26.725Z,5.70
2022-10-17T06:09:53.199Z,5.73
2022-10-17T06:12:19.634Z,6.18
2022-10-17T06:14:46.093Z,7.10
2022-10-17T06:17:15.960Z,6.88
2022-10-17T06:19:44.425Z,6.90
2022-10-17T06:22:10.988Z,7.20
2022-10-17T06:24:37.405Z,7.03
2022-10-17T06:27:08.048Z,7.10
2022-10-17T06:29:38.519Z,7.10
2022-10-17T06:32:05.209Z,6.75
2022-10-17T06:34:31.709Z,6.20
2022-10-17T06:36:58.217Z,6.10
2022-10-17T06:39:26.879Z,6.10
2022-10-17T06:41:53.345Z,6.38
2022-10-17T06:44:19.826Z,6.05
2022-10-17T06:46:46.262Z,6.13
2022-10-17T06:49:12.706Z,6.10
2022-10-17T06:51:39.191Z,6.97
2022-10-17T06:54:05.718Z,6.32
2022-10-17T06:56:32.155Z,6.97
2022-10-17T06:58:58.653Z,6.10
2022-10-17T07:01:25.452Z,4.85
2022-10-17T07:03:52.285Z,4.97
2022-10-17T07:06:19.155Z,6.13
2022-10-17T07:08:46.100Z,6.70
2022-10-17T07:11:17.258Z,5.90
2022-10-17T07:13:44.110Z,5.00
2022-10-17T07:16:11.417Z,5.18
2022-10-17T07:18:38.737Z,5.40
2022-10-17T07:21:05.901Z,5.15
2022-10-17T07:23:34.297Z,5.57
2022-10-17T07:26:02.316Z,4.10
2022-10-17T07:28:29.196Z,4.55
2022-10-17T07:31:03.718Z,4.35
2022-10-17T07:33:30.197Z,4.78
2022-10-17T07:35:59.474Z,4.87
2022-10-17T07:38:26.451Z,5.07
2022-10-17T07:40:56.502Z,3.55
2022-10-17T07:43:24.251Z,3.45
2022-10-17T07:45:50.880Z,3.13
2022-10-17T07:48:19.908Z,3.37
2022-10-17T07:50:46.613Z,2.45
2022-10-17T07:53:13.092Z,2.28
2022-10-17T07:55:40.532Z,2.63
2022-10-17T07:58:07.256Z,2.33
2022-10-17T08:00:33.799Z,2.20
2022-10-17T08:03:00.393Z,1.90
2022-10-17T08:05:27.131Z,2.25
2022-10-17T08:07:53.573Z,2.00
2022-10-17T08:10:20.297Z,2.40
2022-10-17T08:12:46.838Z,2.03
2022-10-17T08:15:13.601Z,2.28
2022-10-17T08:17:41.464Z,2.10
2022-10-17T08:20:08.167Z,2.30
2022-10-17T08:22:34.932Z,2.13
2022-10-17T08:25:01.412Z,1.80
2022-10-17T08:27:28.878Z,1.90
2022-10-17T08:29:55.511Z,2.10
2022-10-17T08:32:24.957Z,2.00
2022-10-17T08:34:52.061Z,1.90
2022-10-17T08:37:18.592Z,2.10
2022-10-17T08:39:45.208Z,2.38
2022-10-17T08:42:11.547Z,2.10
2022-10-17T08:45:02.415Z,2.08
2022-10-17T08:47:43.459Z,1.75
2022-10-17T08:50:31.503Z,2.50
2022-10-17T08:53:03.392Z,2.30
2022-10-17T08:55:37.833Z,2.95
2022-10-17T08:58:21.182Z,3.03
2022-10-17T09:00:54.173Z,3.00
2022-10-17T09:03:37.139Z,2.80
2022-10-17T09:06:13.307Z,3.67
2022-10-17T09:08:51.748Z,3.60
2022-10-17T09:11:37.499Z,4.03
2022-10-17T09:14:06.698Z,3.50
2022-10-17T09:16:45.354Z,3.50
2022-10-17T09:19:28.544Z,3.55
2022-10-17T09:22:00.069Z,4.15
2022-10-17T09:24:47.515Z,4.70
2022-10-17T09:27:23.416Z,4.90
2022-10-17T09:29:52.934Z,5.40
2022-10-17T09:32:23.011Z,5.22
2022-10-17T09:34:49.631Z,5.20
2022-10-17T09:37:17.001Z,5.38
2022-10-17T09:39:44.232Z,5.85
2022-10-17T09:42:14.967Z,6.23
2022-10-17T09:45:01.564Z,5.93
2022-10-17T09:47:47.643Z,6.55
2022-10-17T09:50:23.054Z,5.40
2022-10-17T09:52:50.864Z,6.32
2022-10-17T09:55:21.435Z,5.93
2022-10-17T09:57:58.375Z,4.68
2022-10-17T10:00:29.087Z,5.25
2022-10-17T10:03:15.587Z,5.00
2022-10-17T10:05:43.462Z,4.40
2022-10-17T10:08:17.970Z,5.13
2022-10-17T10:10:45.247Z,5.43
2022-10-17T10:13:14.787Z,5.10
2022-10-17T10:15:43.736Z,5.20
2022-10-17T10:21:13.380Z,5.90
2022-10-17T10:23:42.446Z,6.40
2022-10-17T10:26:24.039Z,6.38
2022-10-17T10:28:53.799Z,7.03
2022-10-17T10:31:27.320Z,6.93
2022-10-17T10:33:56.859Z,6.53
2022-10-17T10:36:24.523Z,6.78
2022-10-17T10:38:57.158Z,7.38
2022-10-17T10:41:27.732Z,7.30
2022-10-17T10:43:55.024Z,6.78
2022-10-17T10:46:27.389Z,6.40
2022-10-17T10:48:59.753Z,6.22
2022-10-17T10:51:34.543Z,6.50
2022-10-17T10:54:23.995Z,6.85
2022-10-17T10:56:53.578Z,6.55
2022-10-17T10:59:27.249Z,6.53
2022-10-17T11:02:13.204Z,7.53
2022-10-17T11:05:01.350Z,6.35
2022-10-17T11:07:46.122Z,6.57
2022-10-17T11:10:37.876Z,6.45
2022-10-17T11:13:11.839Z,6.77
2022-10-17T11:15:41.995Z,7.25
2022-10-17T11:18:33.046Z,8.10
2022-10-17T11:21:21.255Z,8.43
2022-10-17T11:23:52.226Z,7.88
2022-10-17T11:26:26.693Z,7.40
2022-10-17T11:28:54.377Z,7.60
2022-10-17T11:31:22.494Z,7.70
2022-10-17T11:34:12.117Z,8.25
2022-10-17T11:36:42.082Z,8.23
2022-10-17T11:39:16.169Z,8.07
2022-10-17T11:41:45.715Z,7.72
2022-10-17T11:44:17.973Z,8.48
2022-10-17T11:46:46.360Z,7.93
2022-10-17T11:49:25.197Z,8.57
2022-10-17T11:52:00.407Z,8.27
2022-10-17T11:54:54.334Z,8.23
2022-10-17T11:57:37.332Z,8.32
2022-10-17T12:00:41.721Z,8.20
2022-10-17T12:03:45.877Z,7.75
2022-10-17T12:06:17.747Z,6.93
2022-10-17T12:08:47.235Z,7.65
2022-10-17T12:11:37.188Z,7.60
2022-10-17T12:14:05.766Z,7.82
2022-10-17T12:16:35.449Z,8.10
2022-10-17T12:19:02.901Z,7.73
2022-10-17T12:22:02.406Z,7.85
2022-10-17T12:24:35.842Z,7.57
2022-10-17T12:27:29.839Z,7.82
2022-10-17T12:30:05.669Z,8.27
2022-10-17T12:32:47.030Z,8.13
2022-10-17T12:35:22.170Z,7.65
2022-10-17T12:37:48.473Z,7.25
2022-10-17T12:40:36.541Z,7.22
2022-10-17T12:43:15.322Z,7.15
2022-10-17T12:45:48.023Z,7.00
2022-10-17T12:48:33.090Z,6.93
2022-10-17T12:51:35.385Z,7.45
2022-10-17T12:54:10.598Z,8.27
2022-10-17T12:56:55.665Z,8.38
2022-10-17T12:59:28.541Z,7.90
2022-10-17T13:01:58.786Z,8.63
2022-10-17T13:04:25.827Z,8.43
2022-10-17T13:06:55.113Z,8.50
2022-10-17T13:09:27.570Z,8.82
2022-10-17T13:11:55.091Z,9.57
2022-10-17T13:14:23.113Z,9.98
2022-10-17T13:16:58.240Z,10.38
2022-10-17T13:19:30.659Z,9.98
2022-10-17T13:22:06.082Z,9.95
2022-10-17T13:24:38.798Z,9.83
2022-10-17T13:27:07.232Z,9.50
2022-10-17T13:29:33.851Z,9.07
2022-10-17T13:32:03.854Z,9.27
2022-10-17T13:34:32.678Z,8.52
2022-10-17T13:37:04.666Z,7.90
2022-10-17T13:39:54.393Z,7.75
2022-10-17T13:42:45.409Z,6.97
2022-10-17T13:45:25.115Z,6.60
2022-10-17T13:47:51.650Z,6.13
2022-10-17T13:50:43.031Z,6.43
2022-10-17T13:53:12.969Z,5.97
2022-10-17T13:56:09.117Z,6.20
2022-10-17T13:58:49.038Z,6.13
2022-10-17T14:01:21.363Z,5.70
2022-10-17T14:03:51.761Z,6.00
2022-10-17T14:06:30.044Z,6.88
2022-10-17T14:09:05.394Z,6.32
2022-10-17T14:11:40.758Z,7.07
2022-10-17T14:14:29.114Z,7.50
2022-10-17T14:16:57.493Z,7.30
2022-10-17T14:19:30.602Z,7.82
2022-10-17T14:22:20.034Z,7.53
2022-10-17T14:24:46.949Z,7.45
2022-10-17T14:27:46.572Z,8.85
2022-10-17T14:33:50.857Z,8.52
2022-10-17T14:36:44.115Z,8.07
2022-10-17T14:39:22.708Z,8.68
2022-10-17T14:41:52.271Z,8.70
2022-10-17T14:44:25.722Z,8.40
2022-10-17T14:46:59.437Z,8.77
2022-10-17T14:49:33.870Z,8.85
2022-10-17T14:52:24.830Z,9.95
2022-10-17T14:54:51.492Z,9.68
2022-10-17T14:57:50.180Z,9.80
2022-10-17T15:00:18.464Z,9.55
2022-10-17T15:02:45.987Z,9.88
2022-10-17T15:05:15.473Z,9.27
2022-10-17T15:07:42.653Z,11.05
2022-10-17T15:10:26.471Z,10.13
2022-10-17T15:13:27.662Z,10.18
2022-10-17T15:15:55.425Z,10.95
2022-10-17T15:18:21.895Z,10.57
2022-10-17T15:20:52.664Z,11.43
2022-10-17T15:23:27.175Z,10.30
2022-10-17T15:25:53.774Z,11.02
2022-10-17T15:28:20.411Z,11.07
2022-10-17T15:30:46.914Z,10.80
2022-10-17T15:33:13.388Z,11.23
2022-10-17T15:35:39.837Z,10.93
2022-10-17T15:38:07.063Z,10.98
2022-10-17T15:40:34.537Z,11.70
2022-10-17T15:43:01.064Z,11.25
2022-10-17T15:45:29.966Z,12.20
2022-10-17T15:48:01.842Z,11.40
2022-10-17T15:50:30.573Z,11.57
2022-10-17T15:52:57.080Z,11.73
2022-10-17T15:55:23.570Z,11.27
2022-10-17T15:57:50.035Z,11.77
2022-10-17T16:00:19.243Z,12.67
2022-10-17T16:02:46.466Z,12.85
2022-10-17T16:05:16.282Z,12.32
2022-10-17T16:07:48.368Z,12.95
2022-10-17T16:10:15.586Z,13.30
2022-10-17T16:12:42.875Z,13.23
2022-10-17T16:15:14.372Z,12.23
2022-10-17T16:17:41.664Z,13.32
2022-10-17T16:20:11.135Z,14.00
2022-10-17T16:22:38.117Z,14.70
2022-10-17T16:25:10.132Z,14.57
2022-10-17T16:27:37.258Z,15.02
2022-10-17T16:30:07.883Z,15.50
2022-10-17T16:32:34.387Z,15.88
2022-10-17T16:35:01.870Z,17.30
2022-10-17T16:37:28.329Z,15.80
2022-10-17T16:39:55.058Z,15.73
2022-10-17T16:42:21.529Z,17.15
2022-10-17T16:44:50.226Z,18.23
2022-10-17T16:47:17.879Z,18.35
2022-10-17T16:49:45.433Z,18.37
2022-10-17T16:52:12.219Z,19.00
2022-10-17T16:54:38.664Z,17.80
2022-10-17T16:57:05.291Z,19.25
2022-10-17T16:59:31.747Z,18.60
2022-10-17T17:01:59.813Z,19.97
2022-10-17T17:04:26.378Z,19.85
2022-10-17T17:06:52.885Z,19.85
2022-10-17T17:09:19.327Z,18.63
2022-10-17T17:11:45.917Z,19.60
2022-10-17T17:14:12.678Z,19.93
2022-10-17T17:16:39.136Z,21.02
2022-10-17T17:19:10.917Z,19.90
2022-10-17T17:21:37.412Z,19.83
2022-10-17T17:24:04.466Z,20.65
2022-10-17T17:26:36.252Z,20.10
2022-10-17T17:29:03.281Z,19.80
2022-10-17T17:31:31.639Z,20.60
2022-10-17T17:33:58.529Z,21.05
2022-10-17T17:36:27.252Z,20.98
2022-10-17T17:38:57.919Z,20.73
2022-10-17T17:41:26.637Z,20.45
2022-10-17T17:43:53.704Z,21.80
2022-10-17T17:46:21.370Z,20.50
2022-10-17T17:48:48.927Z,19.10
2022-10-17T17:51:29.054Z,18.07
2022-10-17T17:53:56.251Z,19.60
2022-10-17T17:56:25.101Z,17.73
2022-10-17T17:59:01.740Z,19.70
2022-10-17T18:01:37.871Z,17.33
2022-10-17T18:04:06.862Z,20.23
2022-10-17T18:06:33.313Z,17.80
2022-10-17T18:09:00.012Z,19.20
2022-10-17T18:11:27.212Z,18.58
2022-10-17T18:14:05.664Z,18.90
2022-10-17T18:16:33.629Z,18.63
2022-10-17T18:19:04.316Z,19.25
2022-10-17T18:21:33.862Z,20.13
2022-10-17T18:24:00.403Z,17.23
2022-10-17T18:26:27.168Z,18.60
2022-10-17T18:28:53.776Z,17.67
2022-10-17T18:31:28.200Z,16.42
2022-10-17T18:33:56.731Z,19.33
2022-10-17T18:36:23.415Z,17.40
2022-10-17T18:38:49.919Z,16.55
2022-10-17T18:41:23.184Z,18.50
2022-10-17T18:43:50.534Z,18.88
2022-10-17T18:46:22.514Z,18.75
2022-10-17T18:48:49.813Z,18.10
2022-10-17T18:51:18.524Z,17.70
2022-10-17T18:53:47.741Z,18.07
2022-10-17T18:56:14.502Z,14.77
2022-10-17T18:58:41.319Z,15.20
2022-10-17T19:01:15.511Z,14.95
2022-10-17T19:03:48.541Z,13.98
2022-10-17T19:06:17.779Z,15.87
2022-10-17T19:08:44.977Z,15.60
2022-10-17T19:11:17.024Z,14.68
2022-10-17T19:13:47.183Z,15.07
2022-10-17T19:16:20.271Z,13.90
2022-10-17T19:19:01.662Z,15.60
2022-10-17T19:21:28.159Z,14.88
2022-10-17T19:23:59.350Z,13.88
2022-10-17T19:26:27.525Z,14.57
2022-10-17T19:28:54.410Z,13.93
2022-10-17T19:31:26.528Z,14.63
2022-10-17T19:33:54.880Z,14.18
2022-10-17T19:36:28.872Z,14.48
2022-10-17T19:38:58.850Z,12.95
2022-10-17T19:41:25.720Z,14.00
2022-10-17T19:43:52.228Z,12.10
2022-10-17T19:46:21.678Z,14.32
2022-10-17T19:48:49.563Z,13.23
2022-10-17T19:51:19.025Z,14.13
2022-10-17T19:53:46.241Z,13.77
2022-10-17T19:56:12.967Z,14.33
2022-10-17T19:58:46.424Z,14.10
2022-10-17T20:01:19.273Z,14.15
2022-10-17T20:03:46.101Z,12.73
2022-10-17T20:06:12.565Z,13.63
2022-10-17T20:08:43.145Z,13.23
2022-10-17T20:11:13.965Z,13.30
2022-10-17T20:13:43.088Z,12.90
2022-10-17T20:16:13.524Z,12.80
2022-10-17T20:18:41.187Z,14.50
2022-10-17T20:21:13.436Z,13.17
2022-10-17T20:23:40.557Z,12.25
2022-10-17T20:26:25.929Z,12.55
2022-10-17T20:29:02.139Z,12.73
2022-10-17T20:31:29.255Z,13.02
2022-10-17T20:33:59.687Z,11.83
2022-10-17T20:36:26.539Z,12.50
2022-10-17T20:38:57.416Z,12.10
2022-10-17T20:41:24.873Z,12.18
2022-10-17T20:43:52.355Z,12.07
2022-10-17T20:46:34.953Z,11.60
2022-10-17T20:49:03.284Z,11.43
2022-10-17T20:51:29.750Z,11.35
2022-10-17T20:56:26.584Z,11.02
2022-10-17T20:58:55.350Z,11.00
2022-10-17T21:01:23.051Z,10.55
2022-10-17T21:03:49.913Z,11.07
2022-10-17T21:06:17.585Z,10.23
2022-10-17T21:08:45.271Z,11.30
2022-10-17T21:11:19.737Z,10.53
2022-10-17T21:13:47.899Z,10.45
2022-10-17T21:16:18.381Z,11.43
2022-10-17T21:18:45.198Z,10.32
2022-10-17T21:21:20.074Z,10.60
2022-10-17T21:23:48.218Z,10.57
2022-10-17T21:26:15.718Z,10.13
2022-10-17T21:28:43.110Z,10.23
2022-10-17T21:31:26.646Z,9.60
2022-10-17T21:33:56.016Z,10.45
2022-10-17T21:36:23.958Z,9.80
2022-10-17T21:38:52.653Z,10.70
2022-10-17T21:41:20.790Z,10.88
2022-10-17T21:43:47.860Z,10.32
2022-10-17T21:46:18.053Z,10.90
2022-10-17T21:48:45.602Z,10.50
2022-10-17T21:51:14.133Z,9.90
2022-10-17T21:53:40.961Z,10.32
2022-10-17T21:56:11.180Z,9.32
2022-10-17T21:58:37.948Z,9.68
2022-10-17T22:01:08.363Z,8.60
2022-10-17T22:03:36.312Z,9.35
2022-10-17T22:06:34.545Z,9.23
2022-10-17T22:08:53.378Z,8.48
2022-10-17T22:11:28.547Z,8.40
2022-10-17T22:14:00.707Z,8.60
2022-10-17T22:16:27.482Z,9.30
2022-10-17T22:19:03.115Z,8.73
2022-10-17T22:21:34.116Z,8.63
2022-10-17T22:24:02.260Z,8.30
2022-10-17T22:26:30.486Z,8.17
2022-10-17T22:28:57.114Z,8.18
2022-10-17T22:31:23.617Z,8.05
2022-10-17T22:33:50.052Z,7.45
2022-10-17T22:36:16.984Z,8.48
2022-10-17T22:38:43.411Z,8.23
2022-10-17T22:41:09.876Z,8.40
2022-10-17T22:43:36.364Z,7.93
2022-10-17T22:46:04.926Z,8.20
2022-10-17T22:48:31.679Z,7.43
2022-10-17T22:50:59.120Z,7.93
2022-10-17T22:53:26.804Z,7.93
2022-10-17T22:56:08.009Z,7.63
2022-10-17T22:58:35.610Z,8.30
2022-10-17T23:01:02.659Z,7.80
2022-10-17T23:03:30.490Z,8.27
2022-10-17T23:05:57.523Z,8.20
2022-10-17T23:08:24.658Z,8.68
2022-10-17T23:10:51.157Z,8.48
2022-10-17T23:13:18.703Z,7.93
2022-10-17T23:15:45.516Z,8.37
2022-10-17T23:18:11.985Z,8.43
2022-10-17T23:20:38.480Z,8.48
2022-10-17T23:23:05.052Z,8.48
2022-10-17T23:25:33.668Z,8.43
2022-10-17T23:28:00.574Z,8.50
2022-10-17T23:30:27.100Z,9.00
2022-10-17T23:32:53.613Z,8.80
2022-10-17T23:35:20.083Z,8.60
2022-10-17T23:38:05.346Z,8.40
2022-10-17T23:40:31.845Z,8.23
2022-10-17T23:42:58.268Z,8.70
2022-10-17T23:45:24.769Z,8.63
2022-10-17T23:47:51.245Z,8.20
2022-10-17T23:50:17.755Z,9.40
2022-10-17T23:52:44.250Z,7.97
2022-10-17T23:55:10.855Z,8.75
2022-10-17T23:57:37.294Z,8.32
